createdAt,value
2022-11-19T00:01:53.565Z,75.03
2022-11-19T00:04:25.814Z,74.89
2022-11-19T00:06:56.453Z,74.83
2022-11-19T00:09:28.283Z,74.41
2022-11-19T00:12:17.696Z,74.64
2022-11-19T00:14:49.329Z,74.59
2022-11-19T00:17:21.306Z,74.19
2022-11-19T00:19:53.004Z,73.47
2022-11-19T00:22:24.635Z,73.20
2022-11-19T00:24:56.344Z,72.79
2022-11-19T00:27:28.111Z,73.40
2022-11-19T00:30:05.527Z,73.82
2022-11-19T00:32:43.807Z,73.92
2022-11-19T00:35:16.051Z,74.28
2022-11-19T00:37:47.700Z,74.81
2022-11-19T00:40:19.604Z,74.75
2022-11-19T00:43:05.196Z,75.05
2022-11-19T00:45:36.870Z,75.37
2022-11-19T00:48:08.960Z,75.51
2022-11-19T00:50:40.680Z,75.02
2022-11-19T00:53:12.349Z,75.51
2022-11-19T00:55:44.041Z,76.55
2022-11-19T00:58:16.547Z,77.53
2022-11-19T01:00:48.268Z,78.46
2022-11-19T01:03:19.936Z,78.47
2022-11-19T01:05:52.085Z,78.22
2022-11-19T01:08:25.137Z,78.19
2022-11-19T01:10:57.335Z,78.73
2022-11-19T01:13:38.300Z,79.39
2022-11-19T01:16:12.580Z,79.62
2022-11-19T01:18:45.683Z,80.17
2022-11-19T01:21:18.672Z,80.24
2022-11-19T01:23:50.728Z,80.67
2022-11-19T01:26:22.575Z,80.05
2022-11-19T01:28:54.893Z,80.32
2022-11-19T01:31:29.130Z,80.21
2022-11-19T01:34:01.259Z,80.26
2022-11-19T01:36:33.438Z,80.01
2022-11-19T01:39:05.119Z,79.56
2022-11-19T01:41:36.799Z,80.05
2022-11-19T01:44:09.544Z,79.19
2022-11-19T01:46:42.593Z,79.90
2022-11-19T01:49:19.088Z,80.39
2022-11-19T01:51:53.289Z,80.95
2022-11-19T01:54:30.037Z,80.73
2022-11-19T01:57:06.415Z,81.14
2022-11-19T01:59:39.545Z,81.23
2022-11-19T02:02:12.907Z,81.86
2022-11-19T02:04:46.676Z,82.50
2022-11-19T02:07:26.206Z,82.26
2022-11-19T02:09:59.305Z,82.61
2022-11-19T02:12:43.852Z,82.63
2022-11-19T02:15:32.592Z,83.50
2022-11-19T02:18:20.276Z,83.41
2022-11-19T02:21:05.232Z,83.34
2022-11-19T02:24:19.223Z,83.03
2022-11-19T02:27:15.019Z,82.70
2022-11-19T02:30:09.619Z,82.96
2022-11-19T02:33:04.734Z,83.42
2022-11-19T02:35:46.608Z,83.44
2022-11-19T02:38:35.585Z,83.53
2022-11-19T02:41:29.658Z,82.85
2022-11-19T02:44:23.059Z,82.61
2022-11-19T02:46:56.785Z,82.52
2022-11-19T02:49:32.997Z,83.10
2022-11-19T02:52:06.085Z,83.41
2022-11-19T02:54:37.899Z,84.00
2022-11-19T02:57:10.517Z,84.24
2022-11-19T03:00:04.397Z,84.33
2022-11-19T03:02:59.893Z,83.89
2022-11-19T03:05:36.778Z,83.64
2022-11-19T03:08:09.067Z,83.41
2022-11-19T03:10:51.510Z,83.29
2022-11-19T03:13:45.293Z,83.30
2022-11-19T03:16:40.601Z,83.25
2022-11-19T03:19:21.673Z,83.33
2022-11-19T03:21:58.809Z,83.31
2022-11-19T03:24:35.337Z,83.52
2022-11-19T03:27:14.759Z,84.36
2022-11-19T03:29:51.797Z,84.87
2022-11-19T03:32:27.325Z,83.31
2022-11-19T03:35:02.791Z,82.35
2022-11-19T03:37:38.901Z,81.12
2022-11-19T03:40:16.222Z,80.58
2022-11-19T03:42:51.536Z,80.60
2022-11-19T03:45:26.935Z,81.34
2022-11-19T03:48:02.615Z,81.89
2022-11-19T03:50:41.137Z,82.55
2022-11-19T03:53:13.219Z,82.48
2022-11-19T03:55:50.367Z,83.34
2022-11-19T03:58:24.555Z,84.00
2022-11-19T04:00:56.986Z,83.88
2022-11-19T04:03:29.189Z,83.83
2022-11-19T04:06:00.897Z,83.72
2022-11-19T04:08:33.067Z,84.11
2022-11-19T04:13:35.374Z,84.50
2022-11-19T04:16:07.672Z,83.03
2022-11-19T04:18:39.380Z,82.26
2022-11-19T04:21:11.413Z,82.80
2022-11-19T04:23:43.513Z,83.54
2022-11-19T04:26:15.519Z,84.04
2022-11-19T04:28:47.290Z,84.25
2022-11-19T04:31:19.012Z,83.93
2022-11-19T04:33:51.371Z,84.26
2022-11-19T04:36:23.221Z,84.03
2022-11-19T04:38:54.906Z,83.42
2022-11-19T04:41:26.685Z,82.74
2022-11-19T04:43:58.508Z,82.49
2022-11-19T04:46:30.270Z,82.59
2022-11-19T04:49:01.994Z,82.60
2022-11-19T04:51:34.243Z,82.13
2022-11-19T04:54:08.554Z,81.25
2022-11-19T04:56:41.192Z,81.12
2022-11-19T04:59:13.069Z,81.32
2022-11-19T05:01:44.815Z,80.17
2022-11-19T05:04:16.588Z,79.89
2022-11-19T05:06:48.675Z,79.33
2022-11-19T05:09:20.580Z,79.48
2022-11-19T05:11:52.610Z,79.86
2022-11-19T05:14:29.908Z,80.31
2022-11-19T05:17:02.363Z,80.00
2022-11-19T05:19:34.290Z,79.67
2022-11-19T05:22:06.216Z,79.84
2022-11-19T05:24:38.713Z,79.68
2022-11-19T05:27:09.130Z,79.69
2022-11-19T05:29:40.834Z,79.82
2022-11-19T05:32:12.860Z,79.61
2022-11-19T05:34:44.690Z,79.67
2022-11-19T05:37:16.389Z,79.93
2022-11-19T05:39:48.233Z,79.96
2022-11-19T05:42:19.990Z,79.94
2022-11-19T05:44:51.792Z,80.09
2022-11-19T05:47:24.343Z,80.11
2022-11-19T05:49:56.937Z,80.28
2022-11-19T05:52:27.145Z,80.34
2022-11-19T05:54:58.942Z,80.07
2022-11-19T05:57:30.681Z,79.99
2022-11-19T06:00:02.423Z,79.67
2022-11-19T06:02:44.041Z,79.79
2022-11-19T06:05:15.989Z,79.43
2022-11-19T06:07:47.738Z,79.22
2022-11-19T06:10:19.389Z,79.27
2022-11-19T06:12:51.621Z,79.30
2022-11-19T06:15:23.400Z,79.38
2022-11-19T06:17:57.032Z,79.21
2022-11-19T06:20:28.817Z,79.41
2022-11-19T06:23:00.441Z,79.79
2022-11-19T06:25:32.175Z,79.57
2022-11-19T06:28:03.960Z,79.51
2022-11-19T06:30:35.767Z,79.65
2022-11-19T06:33:07.687Z,79.12
2022-11-19T06:35:39.484Z,78.88
2022-11-19T06:38:11.176Z,78.57
2022-11-19T06:40:42.951Z,78.79
2022-11-19T06:43:14.651Z,79.91
2022-11-19T06:45:46.869Z,80.57
2022-11-19T06:48:18.724Z,81.07
2022-11-19T06:50:51.126Z,80.58
2022-11-19T06:53:23.574Z,79.91
2022-11-19T06:55:57.947Z,79.82
2022-11-19T06:58:30.168Z,79.76
2022-11-19T07:01:02.181Z,79.42
2022-11-19T07:03:35.902Z,80.36
2022-11-19T07:06:08.363Z,81.28
2022-11-19T07:08:40.217Z,80.69
2022-11-19T07:11:27.108Z,79.55
2022-11-19T07:14:00.322Z,79.40
2022-11-19T07:16:34.228Z,78.74
2022-11-19T07:19:09.022Z,78.46
2022-11-19T07:21:40.747Z,77.97
2022-11-19T07:24:13.234Z,78.37
2022-11-19T07:26:45.370Z,78.98
2022-11-19T07:29:18.898Z,78.58
2022-11-19T07:31:53.442Z,77.68
2022-11-19T07:34:25.592Z,77.38
2022-11-19T07:36:57.517Z,77.88
2022-11-19T07:39:29.574Z,78.49
2022-11-19T07:42:19.168Z,78.32
2022-11-19T07:44:57.268Z,78.65
2022-11-19T07:47:28.230Z,77.58
2022-11-19T07:50:01.052Z,77.48
2022-11-19T07:52:33.654Z,76.90
2022-11-19T07:55:04.378Z,76.95
2022-11-19T07:57:36.784Z,76.27
2022-11-19T08:00:12.348Z,75.51
2022-11-19T08:02:47.675Z,75.28
2022-11-19T08:05:18.557Z,75.82
2022-11-19T08:07:50.828Z,75.32
2022-11-19T08:10:31.416Z,75.86
2022-11-19T08:13:05.731Z,76.13
2022-11-19T08:15:38.027Z,76.01
2022-11-19T08:18:16.156Z,75.83
2022-11-19T08:20:49.719Z,76.47
2022-11-19T08:23:24.025Z,76.34
2022-11-19T08:25:56.871Z,76.77
2022-11-19T08:28:30.180Z,76.63
2022-11-19T08:31:11.276Z,76.16
2022-11-19T08:33:44.130Z,75.97
2022-11-19T08:36:15.804Z,76.08
2022-11-19T08:38:48.189Z,76.24
2022-11-19T08:41:37.484Z,75.73
2022-11-19T08:44:09.825Z,76.42
2022-11-19T08:46:42.661Z,76.98
2022-11-19T08:49:14.830Z,76.22
2022-11-19T08:51:46.516Z,75.83
2022-11-19T08:54:18.996Z,75.99
2022-11-19T08:56:49.543Z,76.11
2022-11-19T08:59:22.322Z,76.36
2022-11-19T09:01:54.220Z,76.54
2022-11-19T09:04:26.502Z,76.02
2022-11-19T09:06:58.307Z,75.69
2022-11-19T09:09:30.824Z,75.57
2022-11-19T09:12:03.864Z,75.72
2022-11-19T09:14:37.925Z,75.48
2022-11-19T09:17:09.767Z,75.59
2022-11-19T09:19:41.562Z,76.07
2022-11-19T09:22:13.720Z,75.43
2022-11-19T09:24:48.516Z,74.40
2022-11-19T09:27:23.939Z,74.30
2022-11-19T09:29:56.925Z,73.62
2022-11-19T09:32:30.394Z,73.13
2022-11-19T09:35:04.104Z,73.30
2022-11-19T09:37:36.871Z,72.72
2022-11-19T09:40:10.604Z,72.21
2022-11-19T09:42:53.359Z,72.04
2022-11-19T09:45:27.880Z,72.66
2022-11-19T09:48:18.517Z,72.04
2022-11-19T09:50:55.001Z,70.86
2022-11-19T09:53:30.392Z,70.69
2022-11-19T09:56:03.702Z,69.12
2022-11-19T09:58:41.431Z,69.22
2022-11-19T10:01:17.449Z,69.58
2022-11-19T10:03:51.541Z,70.06
2022-11-19T10:06:28.888Z,70.73
2022-11-19T10:09:27.120Z,70.76
2022-11-19T10:12:14.933Z,70.07
2022-11-19T10:15:06.593Z,69.74
2022-11-19T10:17:51.052Z,68.58
2022-11-19T10:20:36.429Z,67.68
2022-11-19T10:23:16.286Z,67.38
2022-11-19T10:25:50.398Z,67.41
2022-11-19T10:28:27.533Z,67.40
2022-11-19T10:31:13.821Z,67.71
2022-11-19T10:33:51.651Z,67.12
2022-11-19T10:36:30.679Z,66.22
2022-11-19T10:39:08.982Z,65.47
2022-11-19T10:41:47.508Z,64.11
2022-11-19T10:44:40.465Z,63.29
2022-11-19T10:47:16.114Z,63.75
2022-11-19T10:49:52.236Z,64.74
2022-11-19T10:52:32.092Z,64.64
2022-11-19T10:55:14.043Z,64.01
2022-11-19T10:57:49.815Z,63.13
2022-11-19T11:00:22.185Z,63.00
2022-11-19T11:02:59.303Z,62.65
2022-11-19T11:05:32.108Z,62.29
2022-11-19T11:08:12.931Z,62.31
2022-11-19T11:10:48.128Z,61.50
2022-11-19T11:13:58.907Z,62.13
2022-11-19T11:16:45.305Z,62.70
2022-11-19T11:19:19.917Z,63.67
2022-11-19T11:21:54.819Z,64.06
2022-11-19T11:24:34.474Z,64.07
2022-11-19T11:27:23.387Z,64.46
2022-11-19T11:30:16.233Z,64.31
2022-11-19T11:32:48.081Z,63.25
2022-11-19T11:35:35.627Z,64.00
2022-11-19T11:38:07.913Z,63.99
2022-11-19T11:40:38.788Z,63.33
2022-11-19T11:43:19.252Z,63.16
2022-11-19T11:45:59.999Z,63.28
2022-11-19T11:48:38.519Z,64.14
2022-11-19T11:51:23.835Z,64.32
2022-11-19T11:54:18.391Z,64.11
2022-11-19T11:56:50.769Z,64.37
2022-11-19T11:59:29.803Z,64.74
2022-11-19T12:02:07.845Z,65.37
2022-11-19T12:04:39.940Z,65.59
2022-11-19T12:07:19.648Z,65.47
2022-11-19T12:10:03.606Z,65.92
2022-11-19T12:12:41.517Z,65.98
2022-11-19T12:15:24.059Z,65.73
2022-11-19T12:18:02.194Z,65.99
2022-11-19T12:20:40.671Z,65.71
2022-11-19T12:23:34.650Z,66.22
2022-11-19T12:26:14.008Z,68.08
2022-11-19T12:29:04.267Z,69.30
2022-11-19T12:31:47.984Z,69.31
2022-11-19T12:34:41.463Z,68.52
2022-11-19T12:37:28.678Z,67.81
2022-11-19T12:40:15.351Z,66.53
2022-11-19T12:42:58.216Z,67.74
2022-11-19T12:45:42.486Z,72.45
2022-11-19T12:48:31.093Z,75.23
2022-11-19T12:51:13.021Z,75.49
2022-11-19T12:53:59.230Z,76.55
2022-11-19T12:56:43.584Z,78.00
2022-11-19T12:59:34.444Z,79.55
2022-11-19T13:02:16.309Z,80.92
2022-11-19T13:04:53.646Z,82.72
2022-11-19T13:07:30.237Z,82.10
2022-11-19T13:10:08.962Z,81.76
2022-11-19T13:12:46.953Z,82.08
2022-11-19T13:15:24.222Z,82.85
2022-11-19T13:17:59.221Z,83.61
2022-11-19T13:20:41.721Z,84.76
2022-11-19T13:23:20.939Z,85.66
2022-11-19T13:26:00.227Z,84.94
2022-11-19T13:28:37.562Z,85.48
2022-11-19T13:31:15.402Z,85.98
2022-11-19T13:33:52.219Z,86.49
2022-11-19T13:36:32.312Z,86.59
2022-11-19T13:39:13.473Z,88.01
2022-11-19T13:42:09.299Z,89.19
2022-11-19T13:44:42.067Z,90.12
2022-11-19T13:47:14.824Z,89.76
2022-11-19T13:49:52.260Z,89.24
2022-11-19T13:52:31.102Z,89.06
2022-11-19T13:55:03.800Z,88.84
2022-11-19T13:57:35.074Z,88.79
2022-11-19T14:00:22.035Z,88.93
2022-11-19T14:03:27.327Z,89.95
2022-11-19T14:06:15.346Z,89.80
2022-11-19T14:09:10.040Z,90.60
2022-11-19T14:12:09.216Z,89.87
2022-11-19T14:15:10.796Z,89.98
2022-11-19T14:18:06.354Z,90.45
2022-11-19T14:20:59.620Z,90.94
2022-11-19T14:24:04.439Z,90.98
2022-11-19T14:27:18.320Z,90.60
2022-11-19T14:30:02.127Z,90.77
2022-11-19T14:32:53.371Z,92.33
2022-11-19T14:35:40.065Z,91.59
2022-11-19T14:38:33.335Z,91.11
2022-11-19T14:41:25.596Z,90.75
2022-11-19T14:44:32.097Z,90.52
2022-11-19T14:47:33.798Z,91.56
2022-11-19T14:50:08.637Z,91.90
2022-11-19T14:52:52.422Z,92.46
2022-11-19T14:55:25.682Z,92.09
2022-11-19T14:58:02.718Z,91.96
2022-11-19T15:00:37.962Z,91.64
2022-11-19T15:03:15.005Z,91.49
2022-11-19T15:05:48.953Z,91.51
2022-11-19T15:08:50.407Z,91.34
2022-11-19T15:11:22.581Z,91.61
2022-11-19T15:14:38.334Z,92.04
2022-11-19T15:17:12.861Z,91.97
2022-11-19T15:19:55.567Z,91.86
2022-11-19T15:22:53.006Z,92.13
2022-11-19T15:25:37.063Z,92.10
2022-11-19T15:28:24.313Z,92.64
2022-11-19T15:31:23.507Z,92.94
2022-11-19T15:34:18.108Z,92.79
2022-11-19T15:36:53.331Z,91.85
2022-11-19T15:39:31.732Z,91.31
2022-11-19T15:42:07.604Z,91.01
2022-11-19T15:44:47.313Z,90.77
2022-11-19T15:47:23.318Z,90.92
2022-11-19T15:49:58.555Z,90.62
2022-11-19T15:52:32.118Z,90.45
2022-11-19T15:55:22.542Z,90.17
2022-11-19T15:57:56.508Z,89.78
2022-11-19T16:00:29.465Z,89.95
2022-11-19T16:03:01.935Z,89.93
2022-11-19T16:05:34.127Z,89.95
2022-11-19T16:08:12.052Z,90.35
2022-11-19T16:10:47.579Z,90.07
2022-11-19T16:13:44.744Z,89.87
2022-11-19T16:16:43.858Z,89.76
2022-11-19T16:19:18.714Z,90.03
2022-11-19T16:21:55.832Z,89.79
2022-11-19T16:24:47.938Z,89.84
2022-11-19T16:27:24.633Z,89.73
2022-11-19T16:29:56.905Z,89.39
2022-11-19T16:32:29.648Z,89.15
2022-11-19T16:35:20.466Z,89.17
2022-11-19T16:37:53.647Z,89.13
2022-11-19T16:40:26.056Z,89.28
2022-11-19T16:43:01.508Z,89.19
2022-11-19T16:45:34.658Z,89.18
2022-11-19T16:48:06.749Z,88.80
2022-11-19T16:50:45.328Z,88.82
2022-11-19T16:53:48.116Z,88.77
2022-11-19T16:56:20.186Z,88.38
2022-11-19T16:58:55.753Z,87.96
2022-11-19T17:01:29.847Z,88.34
2022-11-19T17:04:08.149Z,88.04
2022-11-19T17:06:43.581Z,88.16
2022-11-19T17:09:41.683Z,87.81
2022-11-19T17:12:39.403Z,87.68
2022-11-19T17:15:40.649Z,87.44
2022-11-19T17:18:19.135Z,87.34
2022-11-19T17:20:53.646Z,87.39
2022-11-19T17:23:27.902Z,87.24
2022-11-19T17:26:01.640Z,87.48
2022-11-19T17:28:40.844Z,87.07
2022-11-19T17:31:20.302Z,87.32
2022-11-19T17:33:54.842Z,87.17
2022-11-19T17:36:27.652Z,87.32
2022-11-19T17:38:59.875Z,88.05
2022-11-19T17:41:50.083Z,88.02
2022-11-19T17:44:39.290Z,89.25
2022-11-19T17:47:22.849Z,88.68
2022-11-19T17:49:55.567Z,89.11
2022-11-19T17:52:29.938Z,88.64
2022-11-19T17:55:15.164Z,88.38
2022-11-19T17:57:46.921Z,88.22
2022-11-19T18:00:19.372Z,88.57
2022-11-19T18:02:51.934Z,88.41
2022-11-19T18:05:26.834Z,88.38
2022-11-19T18:07:58.576Z,97.72
2022-11-19T18:10:30.256Z,100.00
2022-11-19T18:13:02.076Z,94.84
2022-11-19T18:15:33.799Z,91.15
2022-11-19T18:18:05.613Z,90.44
2022-11-19T18:20:37.581Z,90.18
2022-11-19T18:23:12.695Z,90.20
2022-11-19T18:25:44.544Z,90.42
2022-11-19T18:28:16.240Z,91.19
2022-11-19T18:30:47.911Z,91.36
2022-11-19T18:33:21.050Z,90.93
2022-11-19T18:35:52.796Z,90.99
2022-11-19T18:38:24.747Z,90.71
2022-11-19T18:40:56.488Z,91.29
2022-11-19T18:43:46.095Z,91.01
2022-11-19T18:46:17.756Z,91.72
2022-11-19T18:48:49.494Z,91.49
2022-11-19T18:51:21.943Z,91.27
2022-11-19T18:53:53.813Z,91.29
2022-11-19T18:56:25.510Z,91.22
2022-11-19T18:59:03.218Z,91.18
2022-11-19T19:01:36.731Z,91.21
2022-11-19T19:04:09.767Z,92.69
2022-11-19T19:06:42.278Z,92.90
2022-11-19T19:09:20.240Z,93.74
2022-11-19T19:12:13.407Z,93.48
2022-11-19T19:14:47.053Z,92.94
2022-11-19T19:17:19.022Z,92.73
2022-11-19T19:19:50.867Z,92.32
2022-11-19T19:22:22.889Z,92.39
2022-11-19T19:24:58.110Z,93.54
2022-11-19T19:27:30.702Z,92.96
2022-11-19T19:30:02.729Z,92.44
2022-11-19T19:32:34.421Z,92.19
2022-11-19T19:35:07.304Z,92.03
2022-11-19T19:37:39.937Z,91.85
2022-11-19T19:40:11.818Z,92.28
2022-11-19T19:42:43.692Z,91.89
2022-11-19T19:45:15.556Z,91.55
2022-11-19T19:47:47.603Z,91.04
2022-11-19T19:50:20.060Z,90.88
2022-11-19T19:52:52.178Z,91.23
2022-11-19T19:55:24.220Z,91.20
2022-11-19T19:57:56.386Z,91.67
2022-11-19T20:00:28.301Z,91.54
2022-11-19T20:03:00.091Z,92.13
2022-11-19T20:05:31.813Z,91.88
2022-11-19T20:08:03.914Z,91.53
2022-11-19T20:10:35.786Z,91.76
2022-11-19T20:13:25.293Z,91.70
2022-11-19T20:15:59.637Z,91.83
2022-11-19T20:18:32.896Z,92.00
2022-11-19T20:21:05.439Z,92.65
2022-11-19T20:23:37.891Z,92.99
2022-11-19T20:26:12.247Z,92.80
2022-11-19T20:28:44.907Z,93.32
2022-11-19T20:31:18.438Z,92.57
2022-11-19T20:33:55.339Z,91.81
2022-11-19T20:36:29.207Z,92.12
2022-11-19T20:39:01.830Z,92.56
2022-11-19T20:41:50.111Z,93.46
2022-11-19T20:44:23.102Z,93.65
2022-11-19T20:46:57.279Z,94.02
2022-11-19T20:49:31.663Z,92.96
2022-11-19T20:52:04.439Z,92.60
2022-11-19T20:54:37.201Z,91.94
2022-11-19T20:57:07.765Z,91.35
2022-11-19T20:59:39.805Z,91.53
2022-11-19T21:02:14.703Z,91.46
2022-11-19T21:04:46.739Z,91.42
2022-11-19T21:07:18.842Z,91.86
2022-11-19T21:09:50.932Z,91.67
2022-11-19T21:12:23.957Z,90.84
2022-11-19T21:14:55.921Z,91.13
2022-11-19T21:17:28.785Z,91.34
2022-11-19T21:20:00.753Z,91.40
2022-11-19T21:22:32.584Z,91.81
2022-11-19T21:25:09.694Z,92.21
2022-11-19T21:27:44.185Z,91.86
2022-11-19T21:30:19.204Z,91.41
2022-11-19T21:32:50.994Z,91.35
2022-11-19T21:35:22.716Z,92.12
2022-11-19T21:37:54.750Z,92.26
2022-11-19T21:40:26.590Z,92.46
2022-11-19T21:42:58.365Z,91.89
2022-11-19T21:45:30.098Z,92.15
2022-11-19T21:48:01.904Z,91.89
2022-11-19T21:50:33.975Z,92.84
2022-11-19T21:53:05.978Z,92.26
2022-11-19T21:55:39.382Z,91.76
2022-11-19T21:58:13.131Z,90.88
2022-11-19T22:00:47.084Z,91.01
2022-11-19T22:03:18.924Z,91.36
2022-11-19T22:05:58.659Z,91.57
2022-11-19T22:08:32.843Z,91.86
2022-11-19T22:11:25.312Z,91.41
2022-11-19T22:13:58.869Z,90.35
2022-11-19T22:16:31.928Z,89.67
2022-11-19T22:19:03.904Z,89.88
2022-11-19T22:21:36.291Z,89.98
2022-11-19T22:24:09.065Z,91.18
2022-11-19T22:26:39.253Z,90.82
2022-11-19T22:29:11.115Z,91.14
2022-11-19T22:31:42.907Z,91.49
2022-11-19T22:34:15.285Z,90.63
2022-11-19T22:36:47.035Z,89.75
2022-11-19T22:39:19.468Z,89.04
2022-11-19T22:41:51.699Z,88.48
2022-11-19T22:44:23.856Z,89.15
2022-11-19T22:46:58.558Z,88.76
2022-11-19T22:49:30.886Z,88.71
2022-11-19T22:52:02.589Z,87.81
2022-11-19T22:54:37.362Z,86.75
2022-11-19T22:57:13.649Z,85.81
2022-11-19T22:59:45.355Z,85.61
2022-11-19T23:02:19.530Z,85.12
2022-11-19T23:04:51.583Z,84.78
2022-11-19T23:07:23.362Z,85.04
2022-11-19T23:09:55.083Z,85.11
2022-11-19T23:12:44.499Z,84.49
2022-11-19T23:15:16.135Z,84.00
2022-11-19T23:17:48.355Z,83.38
2022-11-19T23:20:20.284Z,83.32
2022-11-19T23:22:51.968Z,83.50
2022-11-19T23:25:24.011Z,83.24
2022-11-19T23:27:55.862Z,83.63
2022-11-19T23:30:27.598Z,83.13
2022-11-19T23:32:59.302Z,82.94
2022-11-19T23:35:31.136Z,82.62
2022-11-19T23:38:02.892Z,82.94
2022-11-19T23:40:34.720Z,82.87
2022-11-19T23:43:07.381Z,82.61
2022-11-19T23:45:39.069Z,83.14
2022-11-19T23:48:11.035Z,84.14
2022-11-19T23:50:42.748Z,84.20
2022-11-19T23:53:14.502Z,84.14
2022-11-19T23:55:49.467Z,84.29
2022-11-19T23:58:21.319Z,84.47
